Time;durP1;ratioP1;P1;durP2;ratioP2;P2;SDS_P1;SDS_P2;PMS_P1;PMS_P2;Temp;Humidity;BMP_temperature;BMP_pressure;BME280_temperature;BME280_humidity;BME280_pressure;Samples;Min_cycle;Max_cycle;Signal;HPM_P1;HPM_P2
2021/05/27 00:02:14;;;;;;;4.57;2.25;;;16.00;68.10;;;;;;6321297;22;20069;-75
2021/05/27 00:04:40;;;;;;;6.00;2.25;;;16.00;68.00;;;;;;6284474;22;20019;-74
2021/05/27 00:07:06;;;;;;;4.70;2.35;;;16.00;68.10;;;;;;6320772;22;20297;-74
2021/05/27 00:09:32;;;;;;;4.55;2.35;;;16.00;68.00;;;;;;6310470;22;20044;-73
2021/05/27 00:11:58;;;;;;;5.82;2.30;;;15.90;68.00;;;;;;6321410;22;20011;-75
2021/05/27 00:14:24;;;;;;;5.35;2.63;;;16.00;68.10;;;;;;6321594;22;20090;-76
2021/05/27 00:16:50;;;;;;;5.05;2.03;;;16.00;68.10;;;;;;6310505;22;20042;-74
2021/05/27 00:19:16;;;;;;;5.63;2.63;;;16.00;68.70;;;;;;6310985;22;20042;-74
2021/05/27 00:21:42;;;;;;;4.95;2.50;;;16.00;68.20;;;;;;6321336;22;20015;-76
2021/05/27 00:24:08;;;;;;;4.47;2.33;;;16.00;68.20;;;;;;6310540;22;20076;-74
2021/05/27 00:26:34;;;;;;;5.75;2.70;;;15.90;68.00;;;;;;6320377;22;20023;-74
2021/05/27 00:29:00;;;;;;;3.95;2.22;;;15.90;68.10;;;;;;6321010;22;20012;-74
2021/05/27 00:31:26;;;;;;;6.85;2.90;;;15.90;68.10;;;;;;6321588;22;20018;-75
2021/05/27 00:33:52;;;;;;;4.32;2.25;;;15.90;68.10;;;;;;6310484;22;20015;-73
2021/05/27 00:36:19;;;;;;;5.80;2.70;;;15.90;68.00;;;;;;6310565;22;20065;-75
2021/05/27 00:38:45;;;;;;;5.13;2.20;;;15.90;68.00;;;;;;6311445;22;20012;-75
2021/05/27 00:41:11;;;;;;;6.63;2.30;;;15.90;68.00;;;;;;6310524;22;20339;-76
2021/05/27 00:43:37;;;;;;;4.68;2.47;;;15.90;68.00;;;;;;6320634;22;20409;-75
2021/05/27 00:46:03;;;;;;;5.05;2.72;;;15.90;68.00;;;;;;6310519;22;20065;-74
2021/05/27 00:51:14;;;;;;;7.45;2.78;;;15.90;68.00;;;;;;6320364;22;20289;-73
2021/05/27 00:53:39;;;;;;;4.60;2.38;;;15.90;68.10;;;;;;6320670;22;20019;-75
2021/05/27 00:56:05;;;;;;;6.32;2.45;;;15.90;68.00;;;;;;6320750;22;20017;-75
2021/05/27 00:58:32;;;;;;;4.65;2.60;;;15.90;68.00;;;;;;6310651;22;20015;-74
2021/05/27 01:00:58;;;;;;;3.80;2.30;;;15.90;68.00;;;;;;6321122;22;20017;-75
2021/05/27 01:03:24;;;;;;;5.15;2.47;;;15.90;68.00;;;;;;6321231;22;20039;-73
2021/05/27 01:05:50;;;;;;;5.30;2.58;;;15.90;68.00;;;;;;6320702;22;20014;-74
2021/05/27 01:08:16;;;;;;;7.00;2.53;;;15.90;68.00;;;;;;6320501;22;20007;-75
2021/05/27 01:10:42;;;;;;;3.85;2.00;;;15.90;68.00;;;;;;6320331;22;20011;-74
2021/05/27 01:13:08;;;;;;;4.75;2.83;;;15.90;68.10;;;;;;6320510;22;20079;-76
2021/05/27 01:15:35;;;;;;;4.60;2.22;;;15.90;68.00;;;;;;6320279;22;20015;-74
2021/05/27 01:18:11;;;;;;;3.47;2.08;;;15.80;68.00;;;;;;6321127;22;20008;-74
2021/05/27 01:20:38;;;;;;;3.50;2.28;;;15.90;68.00;;;;;;6320131;22;20347;-74
2021/05/27 01:23:04;;;;;;;4.97;2.75;;;15.80;68.00;;;;;;6319973;22;20017;-75
2021/05/27 01:25:31;;;;;;;7.60;2.88;;;15.80;68.00;;;;;;6292870;22;20086;-74
2021/05/27 01:27:57;;;;;;;6.20;2.40;;;15.80;68.10;;;;;;6320358;22;20060;-74
2021/05/27 01:30:23;;;;;;;6.80;3.13;;;15.80;68.10;;;;;;6319673;22;20011;-74
2021/05/27 01:32:50;;;;;;;7.93;2.50;;;15.80;68.10;;;;;;6320573;22;20062;-75
2021/05/27 01:35:18;;;;;;;4.80;2.30;;;15.80;68.10;;;;;;6319981;22;20078;-74
2021/05/27 01:37:45;;;;;;;6.45;3.03;;;15.80;68.10;;;;;;6319938;22;20018;-75
2021/05/27 01:40:16;;;;;;;4.22;2.30;;;15.80;68.10;;;;;;6320810;22;20059;-74
2021/05/27 01:42:42;;;;;;;4.13;2.33;;;15.80;68.20;;;;;;6320588;22;20078;-75
2021/05/27 01:45:09;;;;;;;4.75;2.47;;;15.80;68.20;;;;;;6319763;22;20093;-74
2021/05/27 01:47:34;;;;;;;6.70;2.97;;;15.80;68.20;;;;;;6315127;22;20007;-74
2021/05/27 01:50:00;;;;;;;5.47;2.38;;;15.80;68.20;;;;;;6320722;22;20011;-74
2021/05/27 01:52:26;;;;;;;5.78;2.33;;;15.80;68.20;;;;;;6320926;22;20012;-76
2021/05/27 01:54:52;;;;;;;4.55;2.55;;;15.80;68.30;;;;;;6320530;22;20018;-74
2021/05/27 01:57:18;;;;;;;3.30;2.13;;;15.80;68.30;;;;;;6319930;22;20011;-74
2021/05/27 01:59:43;;;;;;;5.57;2.35;;;15.80;68.30;;;;;;6319550;22;20023;-74
2021/05/27 02:02:09;;;;;;;4.88;2.47;;;15.80;68.30;;;;;;6320517;22;20030;-74
2021/05/27 02:04:35;;;;;;;7.72;2.13;;;15.70;68.90;;;;;;6320832;22;20041;-74
2021/05/27 02:07:12;;;;;;;5.53;2.22;;;15.80;68.30;;;;;;6309581;22;20015;-74
2021/05/27 02:09:39;;;;;;;4.82;2.33;;;15.80;68.20;;;;;;6319745;22;20093;-74
2021/05/27 02:12:06;;;;;;;4.40;2.35;;;15.70;68.20;;;;;;6320131;22;20007;-75
2021/05/27 02:14:33;;;;;;;5.70;2.20;;;15.70;68.30;;;;;;6309507;22;20420;-75
2021/05/27 02:16:58;;;;;;;3.95;2.35;;;15.70;68.30;;;;;;6320112;22;20011;-74
2021/05/27 02:19:25;;;;;;;4.63;2.13;;;15.70;68.30;;;;;;6310021;22;20022;-74
2021/05/27 02:21:51;;;;;;;3.80;2.00;;;15.70;68.30;;;;;;6309678;22;20023;-74
2021/05/27 02:24:17;;;;;;;3.83;2.60;;;15.70;68.30;;;;;;6309341;22;20069;-74
2021/05/27 02:26:43;;;;;;;5.88;2.88;;;15.70;68.30;;;;;;6319969;22;20015;-73
2021/05/27 02:29:10;;;;;;;4.60;2.17;;;15.70;68.30;;;;;;6319550;22;20035;-73
2021/05/27 02:31:36;;;;;;;4.65;2.13;;;15.70;68.40;;;;;;6319535;22;20408;-75
2021/05/27 02:34:03;;;;;;;4.68;2.28;;;15.70;68.40;;;;;;6320332;22;20011;-74
2021/05/27 02:36:29;;;;;;;6.47;2.17;;;15.70;68.40;;;;;;6309504;22;20012;-74
2021/05/27 02:38:56;;;;;;;5.03;2.10;;;15.70;68.40;;;;;;6309233;22;20015;-74
2021/05/27 02:41:22;;;;;;;4.82;2.20;;;15.70;68.40;;;;;;6319601;22;20042;-74
2021/05/27 02:43:49;;;;;;;4.68;2.25;;;15.70;68.40;;;;;;6320003;22;20077;-74
2021/05/27 02:46:16;;;;;;;5.82;2.20;;;15.70;68.40;;;;;;6320552;22;20018;-74
2021/05/27 02:48:42;;;;;;;4.78;2.35;;;15.70;68.40;;;;;;6309384;22;20015;-74
2021/05/27 02:51:08;;;;;;;2.70;1.80;;;15.70;68.50;;;;;;6309614;22;20285;-74
2021/05/27 02:53:34;;;;;;;3.88;2.25;;;15.70;68.50;;;;;;6319492;22;20073;-74
2021/05/27 02:56:00;;;;;;;6.13;2.28;;;15.70;68.50;;;;;;6319611;22;20066;-74
2021/05/27 02:58:26;;;;;;;5.60;2.22;;;15.70;68.60;;;;;;6319642;22;20351;-75
2021/05/27 03:00:52;;;;;;;3.75;1.90;;;15.70;68.60;;;;;;6319297;22;20015;-74
2021/05/27 03:03:22;;;;;;;3.67;1.77;;;15.70;68.60;;;;;;6319829;22;20447;-75
2021/05/27 03:05:49;;;;;;;3.95;2.05;;;15.60;68.50;;;;;;6320295;22;20019;-75
2021/05/27 03:08:15;;;;;;;6.32;2.22;;;15.60;68.50;;;;;;6319088;22;20409;-74
2021/05/27 03:10:42;;;;;;;5.35;1.77;;;15.60;68.50;;;;;;6321009;22;20011;-73
2021/05/27 03:13:08;;;;;;;3.90;2.00;;;15.60;68.50;;;;;;6294221;22;20297;-74
2021/05/27 03:15:34;;;;;;;4.53;2.17;;;15.60;68.50;;;;;;6321703;22;20008;-74
2021/05/27 03:18:02;;;;;;;4.13;2.33;;;15.60;68.50;;;;;;6321666;22;20007;-74
2021/05/27 03:20:28;;;;;;;4.45;2.05;;;15.60;68.50;;;;;;6311190;22;20082;-74
2021/05/27 03:22:54;;;;;;;4.95;1.90;;;15.60;68.50;;;;;;6312176;22;20039;-74
2021/05/27 03:25:19;;;;;;;3.65;2.15;;;15.60;68.50;;;;;;6321609;22;20007;-74
2021/05/27 03:27:45;;;;;;;4.05;2.03;;;15.60;68.50;;;;;;6321784;22;20039;-74
2021/05/27 03:30:12;;;;;;;4.00;1.80;;;15.60;68.50;;;;;;6321295;22;20011;-75
2021/05/27 03:32:40;;;;;;;4.57;2.30;;;15.60;68.50;;;;;;6321199;22;20300;-75
2021/05/27 03:35:09;;;;;;;6.85;1.90;;;15.60;68.50;;;;;;6312097;22;20022;-75
2021/05/27 03:37:35;;;;;;;4.45;1.83;;;15.60;68.50;;;;;;6321405;22;20018;-75
2021/05/27 03:40:14;;;;;;;4.93;2.00;;;15.60;68.60;;;;;;6321365;22;20064;-73
2021/05/27 03:42:46;;;;;;;4.65;2.25;;;15.60;68.60;;;;;;6310998;22;20015;-74
2021/05/27 03:45:25;;;;;;;5.43;2.30;;;15.60;68.50;;;;;;6321343;22;20296;-74
2021/05/27 03:47:52;;;;;;;4.13;2.15;;;15.60;68.60;;;;;;6310580;22;20288;-74
2021/05/27 03:50:26;;;;;;;5.05;2.13;;;15.60;68.60;;;;;;6321202;22;20014;-74
2021/05/27 03:52:52;;;;;;;4.20;2.00;;;15.60;68.60;;;;;;6321349;22;20007;-74
2021/05/27 03:55:20;;;;;;;6.15;2.55;;;15.60;68.50;;;;;;6320971;22;20097;-73
2021/05/27 03:57:47;;;;;;;6.88;2.17;;;15.60;68.60;;;;;;6310800;22;20014;-75
2021/05/27 04:03:04;;;;;;;3.13;1.83;;;15.50;68.50;;;;;;6321266;22;20019;-74
2021/05/27 04:08:15;;;;;;;5.05;2.20;;;15.50;68.50;;;;;;6310656;22;20015;-74
2021/05/27 04:10:41;;;;;;;10.20;2.33;;;15.50;68.60;;;;;;6310221;22;20438;-74
2021/05/27 04:13:07;;;;;;;6.13;1.90;;;15.50;68.50;;;;;;6294134;22;20034;-74
2021/05/27 04:15:36;;;;;;;4.20;1.63;;;15.60;68.60;;;;;;6321213;22;20011;-74
2021/05/27 04:18:06;;;;;;;7.95;2.47;;;15.60;68.50;;;;;;6320268;22;20127;-76
2021/05/27 04:20:35;;;;;;;5.45;2.03;;;15.50;68.60;;;;;;6321149;22;20015;-74
2021/05/27 04:23:03;;;;;;;4.97;2.10;;;15.60;68.70;;;;;;6321449;22;20011;-74
2021/05/27 04:25:29;;;;;;;3.80;1.83;;;15.60;68.60;;;;;;6320627;22;20011;-75
2021/05/27 04:27:56;;;;;;;4.47;2.30;;;15.50;68.50;;;;;;6318002;22;20031;-74
2021/05/27 04:30:24;;;;;;;6.63;2.05;;;15.50;68.50;;;;;;6320812;22;20011;-74
2021/05/27 04:35:26;;;;;;;5.80;2.15;;;15.50;68.60;;;;;;6321151;22;20416;-73
2021/05/27 04:37:54;;;;;;;4.40;1.83;;;15.50;68.60;;;;;;6310004;22;20018;-75
2021/05/27 04:40:20;;;;;;;4.53;2.05;;;15.50;68.70;;;;;;6320905;22;20008;-75
2021/05/27 04:42:46;;;;;;;5.35;2.17;;;15.50;68.70;;;;;;6320799;22;20011;-74
2021/05/27 04:45:12;;;;;;;4.57;1.90;;;15.50;68.60;;;;;;6321369;22;20011;-76
2021/05/27 04:47:38;;;;;;;4.97;2.00;;;15.50;68.60;;;;;;6315820;22;20015;-75
2021/05/27 04:50:06;;;;;;;7.05;2.40;;;15.50;68.50;;;;;;6320611;22;20007;-76
2021/05/27 04:52:32;;;;;;;4.57;2.03;;;15.50;68.60;;;;;;6311377;22;20076;-74
2021/05/27 04:54:58;;;;;;;5.57;2.38;;;15.50;68.50;;;;;;6320746;22;20471;-74
2021/05/27 04:57:25;;;;;;;7.03;2.47;;;15.50;68.50;;;;;;6310052;22;20027;-75
2021/05/27 04:59:51;;;;;;;6.35;2.00;;;15.50;68.50;;;;;;6320517;22;20097;-75
2021/05/27 05:02:17;;;;;;;5.55;2.20;;;15.50;68.60;;;;;;6320555;22;20284;-77
2021/05/27 05:04:43;;;;;;;6.65;2.58;;;15.60;68.50;;;;;;6283319;22;20098;-74
2021/05/27 05:07:09;;;;;;;7.35;2.58;;;15.60;68.30;;;;;;6320156;22;20057;-75
2021/05/27 05:09:34;;;;;;;8.75;2.45;;;15.60;68.40;;;;;;6319953;22;20011;-75
2021/05/27 05:12:01;;;;;;;7.65;2.38;;;15.60;68.30;;;;;;6320311;22;20011;-75
2021/05/27 05:14:26;;;;;;;4.28;1.83;;;15.60;68.60;;;;;;6320067;22;20286;-76
2021/05/27 05:16:52;;;;;;;8.68;2.30;;;15.60;68.70;;;;;;6283323;22;20011;-75
2021/05/27 05:19:18;;;;;;;6.75;2.35;;;15.60;68.60;;;;;;6293992;22;20072;-76
2021/05/27 05:21:44;;;;;;;7.43;2.47;;;15.60;68.70;;;;;;6310303;22;20007;-76
2021/05/27 05:24:10;;;;;;;11.50;2.72;;;15.70;68.90;;;;;;6320360;22;20011;-76
2021/05/27 05:26:36;;;;;;;6.05;2.72;;;15.70;69.20;;;;;;6320262;22;20008;-76
2021/05/27 05:29:02;;;;;;;14.00;2.80;;;15.70;69.50;;;;;;6309101;22;20014;-75
2021/05/27 05:31:28;;;;;;;9.43;2.97;;;15.70;69.20;;;;;;6309837;22;20015;-75
2021/05/27 05:33:55;;;;;;;9.38;2.53;;;15.70;69.30;;;;;;6319862;22;20008;-76
2021/05/27 05:36:23;;;;;;;9.50;2.88;;;15.60;69.30;;;;;;6320181;22;20089;-82
2021/05/27 05:38:49;;;;;;;6.40;2.80;;;15.60;69.40;;;;;;6320586;22;20011;-77
2021/05/27 05:41:15;;;;;;;7.72;2.83;;;15.60;69.50;;;;;;6320257;22;20453;-74
2021/05/27 05:43:42;;;;;;;6.88;2.65;;;15.60;69.60;;;;;;6309456;22;20076;-73
2021/05/27 05:46:10;;;;;;;8.07;2.67;;;15.60;69.60;;;;;;6319934;22;20266;-75
2021/05/27 05:48:37;;;;;;;5.88;2.53;;;15.60;69.60;;;;;;6310641;22;20011;-74
2021/05/27 05:51:05;;;;;;;10.90;3.53;;;15.60;69.70;;;;;;6319488;22;20008;-74
2021/05/27 05:53:31;;;;;;;9.15;3.15;;;15.60;69.70;;;;;;6319179;22;20042;-74
2021/05/27 05:55:57;;;;;;;6.35;2.70;;;15.70;69.80;;;;;;6318353;22;20018;-74
2021/05/27 05:58:25;;;;;;;6.50;3.10;;;15.70;69.80;;;;;;6318205;22;20095;-74
2021/05/27 06:00:52;;;;;;;7.57;2.95;;;15.70;69.80;;;;;;6317653;22;20034;-74
2021/05/27 06:03:19;;;;;;;7.00;2.90;;;15.60;69.70;;;;;;6317974;22;20015;-75
2021/05/27 06:05:45;;;;;;;10.90;3.25;;;15.60;69.80;;;;;;6317667;22;20027;-74
2021/05/27 06:08:11;;;;;;;5.85;2.60;;;15.60;70.00;;;;;;6307815;22;20102;-74
2021/05/27 06:10:40;;;;;;;10.18;2.80;;;15.60;70.00;;;;;;6307669;22;20288;-74
2021/05/27 06:13:06;;;;;;;17.75;4.00;;;15.60;70.20;;;;;;6317809;22;20011;-71
2021/05/27 06:15:33;;;;;;;11.35;3.25;;;15.60;70.40;;;;;;6310169;22;20427;-74
2021/05/27 06:18:00;;;;;;;12.27;3.60;;;15.60;70.50;;;;;;6319983;22;20404;-76
2021/05/27 06:20:28;;;;;;;13.90;3.83;;;15.60;70.70;;;;;;6319984;22;20026;-76
2021/05/27 06:22:54;;;;;;;10.13;3.47;;;15.60;70.60;;;;;;6309144;22;20424;-76
2021/05/27 06:25:22;;;;;;;9.35;3.33;;;15.60;70.60;;;;;;6319282;22;20011;-77
2021/05/27 06:27:49;;;;;;;15.00;3.80;;;15.60;70.50;;;;;;6319782;22;20077;-76
2021/05/27 06:30:16;;;;;;;9.82;3.60;;;15.60;70.40;;;;;;6320152;22;20030;-76
2021/05/27 06:32:42;;;;;;;10.95;3.22;;;15.60;70.40;;;;;;6292720;22;20086;-75
2021/05/27 06:35:10;;;;;;;11.23;3.53;;;15.60;70.30;;;;;;6320028;22;20011;-78
2021/05/27 06:37:38;;;;;;;13.70;4.03;;;15.60;70.30;;;;;;6319318;22;20011;-79
2021/05/27 06:40:13;;;;;;;8.55;3.38;;;15.60;70.40;;;;;;6319352;22;20427;-78
2021/05/27 06:42:39;;;;;;;11.18;3.20;;;15.60;70.50;;;;;;6319579;22;20041;-77
2021/05/27 06:45:06;;;;;;;17.17;3.92;;;15.60;70.60;;;;;;6320226;22;20030;-78
2021/05/27 06:47:32;;;;;;;10.07;4.15;;;15.60;71.00;;;;;;6317156;22;20014;-77
2021/05/27 06:49:58;;;;;;;12.68;3.55;;;15.60;71.30;;;;;;6321269;22;20008;-76
2021/05/27 06:52:24;;;;;;;13.35;4.25;;;15.60;71.50;;;;;;6321581;22;20011;-76
2021/05/27 06:54:51;;;;;;;11.27;3.42;;;15.60;71.50;;;;;;6321709;22;20011;-76
2021/05/27 06:57:17;;;;;;;17.38;4.30;;;15.60;71.50;;;;;;6321463;22;20152;-77
2021/05/27 06:59:43;;;;;;;14.45;3.63;;;15.60;71.80;;;;;;6321857;22;20420;-75
2021/05/27 07:02:09;;;;;;;17.05;3.60;;;15.60;72.10;;;;;;6321791;22;20066;-75
2021/05/27 07:04:34;;;;;;;10.23;3.35;;;15.60;72.10;;;;;;6321890;22;20046;-75
2021/05/27 07:07:03;;;;;;;10.07;3.78;;;15.60;72.20;;;;;;6321725;22;20127;-77
2021/05/27 07:09:29;;;;;;;13.18;3.45;;;15.60;72.60;;;;;;6321707;22;20007;-77
2021/05/27 07:11:56;;;;;;;9.27;3.08;;;15.70;72.60;;;;;;6321716;22;20007;-79
2021/05/27 07:14:22;;;;;;;10.05;2.67;;;15.70;72.30;;;;;;6321946;22;20061;-77
2021/05/27 07:16:48;;;;;;;12.10;3.80;;;15.80;72.20;;;;;;6321757;22;20408;-77
2021/05/27 07:19:14;;;;;;;9.45;3.10;;;15.80;72.00;;;;;;6321795;22;20021;-77
2021/05/27 07:21:40;;;;;;;11.43;2.80;;;15.80;71.80;;;;;;6310663;22;20015;-76
2021/05/27 07:24:06;;;;;;;8.57;3.35;;;15.80;71.70;;;;;;6294533;22;20105;-77
2021/05/27 07:26:32;;;;;;;7.78;3.05;;;15.80;71.60;;;;;;6321727;22;20392;-76
2021/05/27 07:28:59;;;;;;;7.55;2.70;;;15.80;71.50;;;;;;6284849;22;20015;-76
2021/05/27 07:31:24;;;;;;;9.60;3.13;;;15.80;71.40;;;;;;6321376;22;20010;-77
2021/05/27 07:33:50;;;;;;;12.25;4.13;;;15.80;71.30;;;;;;6321665;22;20007;-78
2021/05/27 07:36:16;;;;;;;10.63;2.95;;;15.90;71.20;;;;;;6310931;22;20019;-78
2021/05/27 07:38:42;;;;;;;7.97;2.15;;;15.90;71.10;;;;;;6321122;22;20011;-76
2021/05/27 07:41:09;;;;;;;7.15;2.80;;;15.90;71.10;;;;;;6321838;22;20040;-78
2021/05/27 07:43:35;;;;;;;12.48;2.88;;;15.80;70.90;;;;;;6321432;22;20348;-77
2021/05/27 07:46:01;;;;;;;11.80;3.80;;;15.80;70.90;;;;;;6321010;22;20080;-77
2021/05/27 07:48:27;;;;;;;10.73;2.53;;;15.90;70.90;;;;;;6313936;22;20019;-78
2021/05/27 07:50:53;;;;;;;10.00;2.53;;;15.90;71.00;;;;;;6320806;22;20019;-77
2021/05/27 07:53:20;;;;;;;10.20;2.97;;;16.00;70.60;;;;;;6321510;22;20441;-78
2021/05/27 07:55:47;;;;;;;9.80;2.53;;;15.90;70.00;;;;;;6320704;22;20007;-78
2021/05/27 07:58:13;;;;;;;4.82;1.85;;;15.90;69.60;;;;;;6320592;22;20019;-77
2021/05/27 08:00:40;;;;;;;7.80;2.08;;;15.90;69.60;;;;;;6320960;22;20016;-78
2021/05/27 08:03:06;;;;;;;9.43;2.42;;;15.80;69.60;;;;;;6320734;22;20483;-79
2021/05/27 08:05:32;;;;;;;7.65;1.85;;;15.80;69.60;;;;;;6310406;22;20035;-78
2021/05/27 08:07:58;;;;;;;6.75;1.63;;;15.80;69.70;;;;;;6320651;22;20086;-76
2021/05/27 08:10:24;;;;;;;8.63;2.20;;;15.80;69.60;;;;;;6320584;22;20459;-77
2021/05/27 08:12:50;;;;;;;7.25;1.80;;;15.70;69.50;;;;;;6311193;22;20090;-79
2021/05/27 08:15:16;;;;;;;8.30;2.30;;;15.70;69.80;;;;;;6320891;22;20035;-79
2021/05/27 08:17:42;;;;;;;7.15;2.25;;;15.70;69.90;;;;;;6310312;22;20304;-77
2021/05/27 08:20:09;;;;;;;6.97;2.15;;;15.70;69.90;;;;;;6320536;22;20338;-78
2021/05/27 08:22:36;;;;;;;8.00;1.65;;;15.70;69.90;;;;;;6321626;22;20015;-76
2021/05/27 08:25:03;;;;;;;7.40;1.90;;;15.80;69.90;;;;;;6294113;22;20037;-77
2021/05/27 08:27:30;;;;;;;7.13;1.92;;;15.80;69.90;;;;;;6320216;22;20015;-78
2021/05/27 08:29:57;;;;;;;9.75;2.30;;;15.80;70.00;;;;;;6320704;22;20026;-77
2021/05/27 08:32:23;;;;;;;6.85;1.90;;;15.80;70.10;;;;;;6320563;22;20076;-78
2021/05/27 08:34:49;;;;;;;9.15;2.22;;;15.70;70.20;;;;;;6320531;22;20011;-79
2021/05/27 08:37:15;;;;;;;7.22;2.17;;;15.70;70.30;;;;;;6320820;22;20022;-79
2021/05/27 08:39:40;;;;;;;10.90;2.28;;;15.70;70.40;;;;;;6320375;22;20007;-78
2021/05/27 08:42:06;;;;;;;7.82;2.10;;;15.70;70.50;;;;;;6320632;22;20007;-78
2021/05/27 08:44:41;;;;;;;7.93;1.83;;;15.70;70.60;;;;;;6320529;22;20007;-78
2021/05/27 08:47:08;;;;;;;12.85;2.65;;;15.70;70.60;;;;;;6317774;22;20082;-78
2021/05/27 08:49:37;;;;;;;6.65;2.15;;;15.70;70.70;;;;;;6294611;22;20045;-79
2021/05/27 08:52:04;;;;;;;11.15;2.30;;;15.70;70.80;;;;;;6320394;22;20007;-78
2021/05/27 08:54:31;;;;;;;13.13;2.72;;;15.60;70.80;;;;;;6320718;22;20011;-79
2021/05/27 08:57:01;;;;;;;12.10;2.20;;;15.60;70.80;;;;;;6320672;22;20007;-78
2021/05/27 08:59:26;;;;;;;12.70;2.17;;;15.60;70.90;;;;;;6320492;22;20403;-77
2021/05/27 09:02:07;;;;;;;16.65;3.03;;;15.60;71.00;;;;;;6309982;22;20011;-77
2021/05/27 09:04:34;;;;;;;12.73;2.50;;;15.60;71.00;;;;;;6320496;22;20011;-78
2021/05/27 09:07:02;;;;;;;12.27;2.40;;;15.60;71.10;;;;;;6293822;22;20007;-78
2021/05/27 09:09:48;;;;;;;16.90;3.28;;;15.60;71.20;;;;;;6320562;22;20011;-77
2021/05/27 09:12:32;;;;;;;12.32;2.50;;;15.60;71.00;;;;;;6319822;22;20052;-79
2021/05/27 09:14:59;;;;;;;15.90;2.47;;;15.60;71.00;;;;;;6309397;22;20007;-77
2021/05/27 09:17:41;;;;;;;12.82;2.45;;;15.60;71.20;;;;;;6320326;22;20010;-79
2021/05/27 09:20:27;;;;;;;12.10;2.40;;;15.60;71.20;;;;;;6293440;22;20064;-79
2021/05/27 09:23:20;;;;;;;10.98;2.60;;;15.60;70.90;;;;;;6320393;22;20015;-78
2021/05/27 09:25:51;;;;;;;16.50;3.47;;;15.60;70.90;;;;;;6320076;22;20039;-79
2021/05/27 09:28:25;;;;;;;7.70;2.05;;;15.60;71.20;;;;;;6319947;22;20003;-77
2021/05/27 09:30:53;;;;;;;;;;;15.60;70.90;;;;;;6320762;22;20016;-77
2021/05/27 09:33:31;;;;;;;11.90;2.47;;;15.60;70.80;;;;;;6319988;22;19968;-78
2021/05/27 09:36:15;;;;;;;9.23;2.60;;;15.60;71.10;;;;;;6319995;22;20011;-79
2021/05/27 09:38:42;;;;;;;;;;;15.60;71.10;;;;;;6320432;22;20018;-77
2021/05/27 09:41:20;;;;;;;12.40;3.05;;;15.60;71.00;;;;;;6320219;22;19910;-79
2021/05/27 09:44:10;;;;;;;9.90;2.10;;;15.60;71.10;;;;;;6319862;22;20098;-77
2021/05/27 09:46:51;;;;;;;13.05;2.22;;;15.70;70.80;;;;;;6291842;22;20019;-78
2021/05/27 09:49:22;;;;;;;10.95;2.42;;;15.70;70.50;;;;;;6319127;22;20300;-79
2021/05/27 09:51:54;;;;;;;11.13;2.83;;;15.70;70.40;;;;;;6292765;22;20011;-79
2021/05/27 09:54:20;;;;;;;6.45;2.45;;;15.70;70.40;;;;;;6320055;22;20011;-78
2021/05/27 09:56:46;;;;;;;14.82;2.55;;;15.80;70.30;;;;;;6320153;22;20022;-78
2021/05/27 09:59:13;;;;;;;16.85;2.80;;;15.80;70.40;;;;;;6316684;22;20030;-79
2021/05/27 10:01:40;;;;;;;12.80;2.40;;;15.70;70.40;;;;;;6319733;22;20010;-78
2021/05/27 10:04:17;;;;;;;12.07;2.72;;;15.80;70.60;;;;;;6318975;22;20011;-79
2021/05/27 10:06:43;;;;;;;12.32;2.10;;;15.70;70.50;;;;;;6309522;22;20010;-79
2021/05/27 10:09:10;;;;;;;8.43;2.10;;;15.70;70.60;;;;;;6319705;22;20011;-78
2021/05/27 10:11:38;;;;;;;11.90;2.50;;;15.70;70.60;;;;;;6319412;22;20335;-78
2021/05/27 10:14:04;;;;;;;20.08;3.00;;;15.70;70.70;;;;;;6309473;22;20011;-77
2021/05/27 10:16:31;;;;;;;10.95;2.88;;;15.80;70.70;;;;;;6319648;22;20489;-78
2021/05/27 10:18:58;;;;;;;11.88;2.22;;;15.80;70.70;;;;;;6320024;22;20011;-78
2021/05/27 10:21:25;;;;;;;12.50;2.60;;;15.80;70.60;;;;;;6311556;22;20007;-79
2021/05/27 10:23:52;;;;;;;10.13;2.40;;;15.80;69.80;;;;;;6321852;22;20475;-77
2021/05/27 10:26:28;;;;;;;13.73;2.45;;;15.80;69.60;;;;;;6321716;22;20011;-86
2021/05/27 10:28:55;;;;;;;12.00;2.35;;;15.80;69.60;;;;;;6259282;22;20045;-79
2021/05/27 10:31:24;;;;;;;18.05;2.95;;;15.80;69.80;;;;;;6321666;22;20011;-77
2021/05/27 10:33:50;;;;;;;13.35;2.42;;;15.80;69.90;;;;;;6311234;22;20007;-79
2021/05/27 10:36:16;;;;;;;12.05;2.33;;;15.80;70.00;;;;;;6322050;22;20420;-80
2021/05/27 10:38:51;;;;;;;12.07;2.65;;;15.80;70.10;;;;;;6321939;22;20018;-78
2021/05/27 10:41:29;;;;;;;9.55;1.85;;;15.80;70.30;;;;;;6321828;22;20026;-79
2021/05/27 10:44:02;;;;;;;9.27;2.58;;;15.80;70.30;;;;;;6321467;22;20008;-80
2021/05/27 10:46:29;;;;;;;9.52;2.47;;;15.70;70.40;;;;;;6284934;22;20011;-79
2021/05/27 10:48:55;;;;;;;8.98;2.10;;;15.80;70.50;;;;;;6285516;22;20049;-79
2021/05/27 10:51:42;;;;;;;8.93;1.95;;;15.70;70.50;;;;;;6320893;22;20019;-78
2021/05/27 10:54:13;;;;;;;10.52;2.80;;;15.70;70.60;;;;;;6284142;22;20291;-78
2021/05/27 10:56:46;;;;;;;13.00;3.33;;;15.70;70.60;;;;;;6321861;22;20017;-82
2021/05/27 10:59:17;;;;;;;10.23;2.63;;;15.60;70.20;;;;;;6322007;22;20089;-78
2021/05/27 11:01:43;;;;;;;9.13;2.45;;;15.70;70.60;;;;;;6321261;22;20058;-79
2021/05/27 11:04:25;;;;;;;11.73;2.60;;;15.70;70.60;;;;;;6320439;22;20388;-79
2021/05/27 11:07:20;;;;;;;10.43;2.90;;;15.70;70.70;;;;;;6321222;22;20438;-79
2021/05/27 11:09:50;;;;;;;;;;;15.60;70.50;;;;;;6311580;22;20011;-80
2021/05/27 11:12:18;;;;;;;6.88;2.15;;;15.60;70.40;;;;;;6320948;22;19910;-80
2021/05/27 11:14:46;;;;;;;11.95;2.83;;;15.60;70.70;;;;;;6321174;22;20007;-81
2021/05/27 11:17:18;;;;;;;7.57;2.05;;;15.60;70.60;;;;;;6320336;22;20049;-79
2021/05/27 11:22:48;;;;;;;10.52;2.58;;;15.70;70.60;;;;;;6321598;22;20064;-80
2021/05/27 11:25:24;;;;;;;8.40;2.42;;;15.70;70.40;;;;;;6284565;22;20080;-80
2021/05/27 11:28:07;;;;;;;7.35;2.05;;;15.70;70.50;;;;;;6321077;22;20015;-80
2021/05/27 11:30:40;;;;;;;9.93;2.60;;;15.70;70.50;;;;;;6321023;22;20007;-80
2021/05/27 11:33:15;;;;;;;9.80;2.45;;;15.70;70.50;;;;;;6309801;22;20285;-79
2021/05/27 11:35:44;;;;;;;7.22;1.92;;;15.80;70.40;;;;;;6321322;22;20185;-80
2021/05/27 11:38:21;;;;;;;7.97;2.40;;;15.80;70.40;;;;;;6321516;22;20085;-80
2021/05/27 11:40:57;;;;;;;12.63;2.60;;;15.80;70.00;;;;;;6321219;22;20011;-80
2021/05/27 11:44:03;;;;;;;9.15;2.13;;;15.90;69.50;;;;;;6321226;22;20408;-79
2021/05/27 11:46:29;;;;;;;10.52;2.22;;;15.90;68.80;;;;;;6279464;22;20015;-80
2021/05/27 11:48:58;;;;;;;8.65;2.55;;;15.80;68.40;;;;;;6284429;22;20140;-80
2021/05/27 11:51:37;;;;;;;8.50;2.40;;;15.80;68.40;;;;;;6321022;22;20021;-80
2021/05/27 11:54:08;;;;;;;8.85;2.47;;;15.80;68.60;;;;;;6317994;22;20011;-78
2021/05/27 11:56:43;;;;;;;8.70;1.80;;;15.80;68.80;;;;;;6319900;22;20011;-78
2021/05/27 11:59:23;;;;;;;8.10;2.17;;;15.80;68.90;;;;;;6321035;22;20015;-79
2021/05/27 12:01:52;;;;;;;11.13;2.30;;;15.80;69.10;;;;;;6321551;22;20061;-79
2021/05/27 12:04:28;;;;;;;10.00;2.30;;;15.80;69.30;;;;;;6310802;22;20014;-79
2021/05/27 12:07:12;;;;;;;9.25;2.05;;;15.80;69.30;;;;;;6320584;22;20039;-78
2021/05/27 12:09:49;;;;;;;13.10;2.55;;;15.80;69.30;;;;;;6321820;22;20011;-78
2021/05/27 12:12:26;;;;;;;6.80;2.35;;;15.80;69.40;;;;;;6321104;22;20022;-80
2021/05/27 12:14:58;;;;;;;8.68;2.22;;;15.80;69.50;;;;;;6294512;22;20033;-80
2021/05/27 12:17:29;;;;;;;12.27;2.25;;;15.80;69.50;;;;;;6283489;22;20262;-81
2021/05/27 12:20:04;;;;;;;5.05;1.90;;;15.80;69.50;;;;;;6310703;22;20046;-78
2021/05/27 12:22:48;;;;;;;9.52;2.53;;;15.80;69.50;;;;;;6320742;22;20077;-79
2021/05/27 12:25:16;;;;;;;7.30;2.25;;;15.80;69.40;;;;;;6310314;22;20025;-79
2021/05/27 12:27:46;;;;;;;8.38;2.10;;;15.80;69.50;;;;;;6320808;22;20088;-80
2021/05/27 12:30:18;;;;;;;11.82;2.30;;;15.80;69.60;;;;;;6283368;22;20015;-81
2021/05/27 12:32:46;;;;;;;9.00;2.08;;;15.90;69.70;;;;;;6283896;22;20015;-81
2021/05/27 12:35:24;;;;;;;17.40;2.33;;;15.80;69.70;;;;;;6320304;22;20078;-78
2021/05/27 12:37:55;;;;;;;13.25;2.45;;;15.90;70.10;;;;;;6320823;22;20078;-83
2021/05/27 12:40:45;;;;;;;18.65;2.63;;;15.90;70.10;;;;;;6320370;22;20010;-82
2021/05/27 12:43:29;;;;;;;14.90;2.30;;;16.10;70.40;;;;;;6320328;22;20073;-77
2021/05/27 12:45:56;;;;;;;18.67;3.35;;;16.20;70.10;;;;;;6310568;22;20018;-78
2021/05/27 12:48:23;;;;;;;17.48;2.42;;;16.30;69.90;;;;;;6310252;22;20019;-78
2021/05/27 12:51:04;;;;;;;14.55;2.33;;;16.40;69.90;;;;;;6320232;22;20457;-79
2021/05/27 12:53:31;;;;;;;17.67;2.55;;;16.50;70.10;;;;;;6320645;22;20011;-79
2021/05/27 12:56:16;;;;;;;7.97;2.10;;;16.50;70.00;;;;;;6321211;22;20007;-78
2021/05/27 12:59:06;;;;;;;12.23;1.90;;;16.60;70.20;;;;;;6320687;22;20063;-76
2021/05/27 13:01:46;;;;;;;14.30;2.38;;;16.60;69.70;;;;;;6290778;22;20018;-81
2021/05/27 13:04:18;;;;;;;16.67;2.40;;;16.60;69.40;;;;;;6256074;22;20065;-78
2021/05/27 13:06:44;;;;;;;12.85;2.42;;;16.70;69.80;;;;;;6320628;22;20093;-79
2021/05/27 13:09:15;;;;;;;15.20;2.35;;;16.70;69.80;;;;;;6320523;22;20002;-79